createdAt,value
2022-11-18T00:01:10.683Z,2.73
2022-11-18T00:03:39.312Z,2.83
2022-11-18T00:06:07.590Z,2.92
2022-11-18T00:08:34.877Z,3.30
2022-11-18T00:11:35.074Z,2.42
2022-11-18T00:14:20.304Z,2.70
2022-11-18T00:16:55.499Z,2.83
2022-11-18T00:19:31.207Z,3.20
2022-11-18T00:21:58.925Z,3.03
2022-11-18T00:24:26.163Z,2.90
2022-11-18T00:26:53.111Z,3.00
2022-11-18T00:29:20.728Z,3.00
2022-11-18T00:31:48.439Z,2.75
2022-11-18T00:34:18.769Z,2.90
2022-11-18T00:36:46.378Z,2.47
2022-11-18T00:39:15.718Z,2.67
2022-11-18T00:42:01.647Z,3.20
2022-11-18T00:44:28.549Z,2.25
2022-11-18T00:46:55.689Z,3.13
2022-11-18T00:49:23.417Z,2.85
2022-11-18T00:51:50.385Z,2.37
2022-11-18T00:54:17.325Z,3.00
2022-11-18T00:56:44.110Z,2.50
2022-11-18T00:59:10.852Z,2.50
2022-11-18T01:01:37.882Z,2.72
2022-11-18T01:04:04.808Z,2.80
2022-11-18T01:06:31.781Z,2.88
2022-11-18T01:08:58.538Z,2.90
2022-11-18T01:11:43.775Z,2.78
2022-11-18T01:14:10.542Z,2.70
2022-11-18T01:16:37.362Z,3.10
2022-11-18T01:19:04.166Z,3.03
2022-11-18T01:21:30.984Z,2.70
2022-11-18T01:23:57.770Z,2.65
2022-11-18T01:26:24.718Z,2.80
2022-11-18T01:28:55.553Z,3.10
2022-11-18T01:31:22.330Z,3.20
2022-11-18T01:33:49.148Z,3.47
2022-11-18T01:36:27.377Z,3.08
2022-11-18T01:38:55.532Z,3.25
2022-11-18T01:41:25.170Z,3.00
2022-11-18T01:43:57.605Z,3.00
2022-11-18T01:46:27.032Z,3.50
2022-11-18T01:49:15.033Z,3.17
2022-11-18T01:51:49.545Z,2.70
2022-11-18T01:54:26.827Z,2.83
2022-11-18T01:56:58.359Z,3.30
2022-11-18T01:59:30.058Z,3.40
2022-11-18T02:01:59.889Z,2.90
2022-11-18T02:04:27.763Z,3.38
2022-11-18T02:06:55.263Z,3.07
2022-11-18T02:09:22.729Z,3.42
2022-11-18T02:11:54.743Z,3.50
2022-11-18T02:14:28.282Z,3.38
2022-11-18T02:17:01.121Z,3.42
2022-11-18T02:19:39.548Z,3.47
2022-11-18T02:22:27.988Z,3.40
2022-11-18T02:25:15.332Z,3.60
2022-11-18T02:27:53.051Z,3.42
2022-11-18T02:30:19.965Z,3.90
2022-11-18T02:32:59.164Z,3.93
2022-11-18T02:35:38.891Z,3.85
2022-11-18T02:38:07.827Z,3.88
2022-11-18T02:40:39.592Z,4.00
2022-11-18T02:43:21.555Z,3.65
2022-11-18T02:45:54.257Z,3.77
2022-11-18T02:48:24.477Z,4.18
2022-11-18T02:50:52.786Z,3.90
2022-11-18T02:53:21.380Z,4.05
2022-11-18T02:55:49.812Z,4.15
2022-11-18T02:58:20.418Z,4.07
2022-11-18T03:00:58.166Z,4.30
2022-11-18T03:03:36.286Z,3.70
2022-11-18T03:06:06.683Z,3.83
2022-11-18T03:08:46.482Z,4.38
2022-11-18T03:11:29.372Z,3.23
2022-11-18T03:14:29.834Z,3.72
2022-11-18T03:17:01.206Z,3.70
2022-11-18T03:19:48.206Z,3.70
2022-11-18T03:22:21.632Z,3.15
2022-11-18T03:24:57.138Z,3.70
2022-11-18T03:27:33.918Z,3.92
2022-11-18T03:30:05.534Z,3.00
2022-11-18T03:32:36.357Z,3.95
2022-11-18T03:35:08.795Z,3.83
2022-11-18T03:37:37.617Z,4.23
2022-11-18T03:40:15.860Z,3.60
2022-11-18T03:42:48.120Z,3.88
2022-11-18T03:45:24.110Z,4.03
2022-11-18T03:48:09.768Z,3.38
2022-11-18T03:50:52.652Z,4.07
2022-11-18T03:53:21.700Z,4.22
2022-11-18T03:55:54.077Z,4.05
2022-11-18T03:58:42.885Z,3.63
2022-11-18T04:01:21.321Z,2.92
2022-11-18T04:03:48.437Z,3.27
2022-11-18T04:06:38.380Z,4.07
2022-11-18T04:09:13.656Z,4.32
2022-11-18T04:12:03.621Z,4.43
2022-11-18T04:14:42.115Z,3.42
2022-11-18T04:17:18.139Z,4.37
2022-11-18T04:19:45.008Z,4.47
2022-11-18T04:22:12.058Z,4.70
2022-11-18T04:24:39.440Z,5.00
2022-11-18T04:27:06.887Z,4.65
2022-11-18T04:29:34.427Z,4.63
2022-11-18T04:32:02.195Z,5.15
2022-11-18T04:34:29.326Z,4.80
2022-11-18T04:36:56.357Z,5.00
2022-11-18T04:39:23.509Z,4.80
2022-11-18T04:41:56.527Z,4.63
2022-11-18T04:44:30.875Z,4.68
2022-11-18T04:47:00.227Z,4.55
2022-11-18T04:49:27.776Z,4.65
2022-11-18T04:51:55.291Z,5.18
2022-11-18T04:54:23.638Z,5.30
2022-11-18T04:56:50.430Z,5.00
2022-11-18T04:59:28.634Z,4.63
2022-11-18T05:01:56.480Z,4.80
2022-11-18T05:04:25.962Z,4.40
2022-11-18T05:06:53.023Z,4.60
2022-11-18T05:09:20.681Z,5.18
2022-11-18T05:12:07.000Z,4.40
2022-11-18T05:14:34.113Z,4.53
2022-11-18T05:17:02.941Z,4.50
2022-11-18T05:19:29.688Z,5.27
2022-11-18T05:21:56.503Z,4.63
2022-11-18T05:24:24.188Z,5.10
2022-11-18T05:26:55.101Z,5.32
2022-11-18T05:29:22.122Z,4.90
2022-11-18T05:31:49.856Z,4.10
2022-11-18T05:34:17.461Z,4.60
2022-11-18T05:36:44.435Z,4.43
2022-11-18T05:39:11.319Z,4.68
2022-11-18T05:41:57.042Z,4.88
2022-11-18T05:44:23.840Z,4.67
2022-11-18T05:46:50.727Z,4.60
2022-11-18T05:49:17.824Z,4.43
2022-11-18T05:51:44.841Z,4.45
2022-11-18T05:54:13.779Z,4.47
2022-11-18T05:56:44.764Z,4.10
2022-11-18T05:59:12.177Z,4.90
2022-11-18T06:01:43.640Z,4.40
2022-11-18T06:04:34.219Z,4.05
2022-11-18T06:07:09.595Z,4.25
2022-11-18T06:09:41.340Z,3.90
2022-11-18T06:12:09.255Z,4.30
2022-11-18T06:14:45.495Z,4.20
2022-11-18T06:17:22.552Z,3.20
2022-11-18T06:19:49.739Z,3.97
2022-11-18T06:22:16.640Z,4.27
2022-11-18T06:24:44.239Z,4.47
2022-11-18T06:27:12.650Z,4.20
2022-11-18T06:29:39.539Z,4.50
2022-11-18T06:32:06.895Z,3.97
2022-11-18T06:34:38.202Z,4.10
2022-11-18T06:37:20.744Z,4.20
2022-11-18T06:39:47.736Z,4.20
2022-11-18T06:42:33.363Z,3.92
2022-11-18T06:45:00.374Z,4.20
2022-11-18T06:47:27.204Z,3.90
2022-11-18T06:49:53.991Z,4.40
2022-11-18T06:52:22.031Z,4.45
2022-11-18T06:54:49.003Z,3.50
2022-11-18T06:57:16.323Z,4.30
2022-11-18T06:59:43.135Z,4.50
2022-11-18T07:02:10.013Z,4.30
2022-11-18T07:04:39.682Z,4.05
2022-11-18T07:07:07.591Z,4.80
2022-11-18T07:09:35.638Z,4.28
2022-11-18T07:12:03.500Z,4.03
2022-11-18T07:14:30.835Z,3.60
2022-11-18T07:16:57.768Z,4.05
2022-11-18T07:19:24.706Z,4.20
2022-11-18T07:21:51.661Z,4.00
2022-11-18T07:24:18.476Z,3.40
2022-11-18T07:26:45.412Z,4.35
2022-11-18T07:29:12.254Z,4.28
2022-11-18T07:31:39.897Z,3.55
2022-11-18T07:34:07.412Z,3.50
2022-11-18T07:36:36.056Z,2.70
2022-11-18T07:39:05.276Z,3.83
2022-11-18T07:41:33.165Z,3.15
2022-11-18T07:44:02.449Z,3.80
2022-11-18T07:46:37.456Z,3.80
2022-11-18T07:49:06.809Z,3.60
2022-11-18T07:51:36.331Z,4.13
2022-11-18T07:54:21.294Z,4.20
2022-11-18T07:56:48.142Z,3.17
2022-11-18T07:59:14.927Z,4.05
2022-11-18T08:01:41.897Z,4.00
2022-11-18T08:04:12.615Z,4.28
2022-11-18T08:06:40.455Z,3.70
2022-11-18T08:09:08.311Z,4.43
2022-11-18T08:11:35.546Z,3.80
2022-11-18T08:14:02.403Z,2.93
2022-11-18T08:16:29.577Z,4.20
2022-11-18T08:18:58.221Z,3.95
2022-11-18T08:21:25.003Z,4.07
2022-11-18T08:23:53.650Z,4.38
2022-11-18T08:26:21.196Z,4.00
2022-11-18T08:28:48.420Z,4.05
2022-11-18T08:31:22.591Z,3.22
2022-11-18T08:33:49.572Z,4.00
2022-11-18T08:36:20.809Z,4.20
2022-11-18T08:38:47.673Z,3.00
2022-11-18T08:41:17.271Z,3.60
2022-11-18T08:43:44.331Z,4.32
2022-11-18T08:46:11.146Z,3.10
2022-11-18T08:48:37.904Z,4.30
2022-11-18T08:51:05.196Z,3.23
2022-11-18T08:53:32.911Z,3.97
2022-11-18T08:56:00.817Z,4.10
2022-11-18T08:58:27.885Z,2.97
2022-11-18T09:00:55.188Z,4.10
2022-11-18T09:03:22.685Z,4.10
2022-11-18T09:05:50.067Z,4.40
2022-11-18T09:08:17.041Z,4.63
2022-11-18T09:10:43.823Z,4.82
2022-11-18T09:13:47.826Z,4.50
2022-11-18T09:16:01.820Z,4.63
2022-11-18T09:18:29.049Z,3.08
2022-11-18T09:21:02.161Z,3.92
2022-11-18T09:23:29.076Z,3.67
2022-11-18T09:26:04.645Z,2.90
2022-11-18T09:28:32.051Z,3.60
2022-11-18T09:30:58.869Z,3.65
2022-11-18T09:33:25.660Z,3.50
2022-11-18T09:35:52.450Z,2.80
2022-11-18T09:38:19.336Z,2.50
2022-11-18T09:41:12.108Z,3.33
2022-11-18T09:43:51.139Z,2.97
2022-11-18T09:46:55.100Z,3.10
2022-11-18T09:49:40.016Z,3.30
2022-11-18T09:52:18.583Z,3.53
2022-11-18T09:54:45.529Z,3.10
2022-11-18T09:57:16.771Z,4.00
2022-11-18T09:59:44.665Z,4.00
2022-11-18T10:02:43.081Z,3.55
2022-11-18T10:05:21.237Z,4.57
2022-11-18T10:07:58.369Z,3.57
2022-11-18T10:10:36.726Z,3.70
2022-11-18T10:13:17.642Z,3.35
2022-11-18T10:15:59.828Z,2.90
2022-11-18T10:19:03.568Z,3.60
2022-11-18T10:21:43.326Z,3.60
2022-11-18T10:24:24.000Z,3.40
2022-11-18T10:26:58.777Z,3.22
2022-11-18T10:29:26.535Z,4.13
2022-11-18T10:32:04.192Z,3.80
2022-11-18T10:34:33.212Z,3.40
2022-11-18T10:37:13.454Z,3.72
2022-11-18T10:40:00.767Z,3.80
2022-11-18T10:42:35.543Z,3.45
2022-11-18T10:45:25.127Z,2.88
2022-11-18T10:48:09.141Z,3.10
2022-11-18T10:50:40.661Z,2.92
2022-11-18T10:53:27.339Z,3.58
2022-11-18T10:56:05.598Z,3.83
2022-11-18T10:58:37.526Z,4.45
2022-11-18T11:01:20.841Z,4.57
2022-11-18T11:04:02.056Z,4.55
2022-11-18T11:06:32.970Z,4.50
2022-11-18T11:09:03.507Z,4.40
2022-11-18T11:11:59.837Z,5.10
2022-11-18T11:14:41.565Z,3.90
2022-11-18T11:17:15.555Z,4.60
2022-11-18T11:20:01.887Z,4.53
2022-11-18T11:22:29.090Z,4.90
2022-11-18T11:24:56.995Z,4.25
2022-11-18T11:30:26.354Z,4.97
2022-11-18T11:33:27.545Z,5.40
2022-11-18T11:36:03.652Z,3.58
2022-11-18T11:38:36.343Z,4.15
2022-11-18T11:41:05.986Z,4.20
2022-11-18T11:43:43.566Z,4.57
2022-11-18T11:46:28.914Z,4.60
2022-11-18T11:49:10.574Z,4.15
2022-11-18T11:51:52.990Z,4.82
2022-11-18T11:54:36.204Z,5.27
2022-11-18T11:57:23.011Z,4.53
2022-11-18T12:00:17.009Z,4.25
2022-11-18T12:02:58.974Z,4.78
2022-11-18T12:05:34.212Z,5.40
2022-11-18T12:08:22.621Z,4.70
2022-11-18T12:11:10.587Z,5.15
2022-11-18T12:14:15.214Z,4.78
2022-11-18T12:16:44.867Z,3.83
2022-11-18T12:19:17.226Z,5.60
2022-11-18T12:21:47.208Z,5.20
2022-11-18T12:24:24.437Z,5.97
2022-11-18T12:26:51.971Z,4.95
2022-11-18T12:29:19.197Z,5.85
2022-11-18T12:32:14.423Z,6.13
2022-11-18T12:34:43.709Z,5.60
2022-11-18T12:37:25.953Z,5.65
2022-11-18T12:39:55.711Z,5.47
2022-11-18T12:43:04.658Z,5.93
2022-11-18T12:45:40.823Z,6.50
2022-11-18T12:48:27.862Z,6.40
2022-11-18T12:50:57.100Z,6.10
2022-11-18T12:53:47.989Z,6.75
2022-11-18T12:56:17.590Z,6.53
2022-11-18T12:58:49.262Z,6.50
2022-11-18T13:01:24.868Z,6.33
2022-11-18T13:03:52.610Z,6.80
2022-11-18T13:06:19.393Z,6.90
2022-11-18T13:08:52.673Z,6.55
2022-11-18T13:11:39.235Z,6.90
2022-11-18T13:14:25.531Z,7.43
2022-11-18T13:17:11.163Z,7.03
2022-11-18T13:19:38.070Z,6.82
2022-11-18T13:22:36.141Z,5.90
2022-11-18T13:25:03.264Z,7.07
2022-11-18T13:27:58.945Z,6.77
2022-11-18T13:30:27.651Z,5.85
2022-11-18T13:32:57.767Z,5.65
2022-11-18T13:35:27.365Z,7.10
2022-11-18T13:37:58.062Z,6.20
2022-11-18T13:40:26.623Z,7.20
2022-11-18T13:42:53.946Z,6.97
2022-11-18T13:45:25.734Z,6.25
2022-11-18T13:48:19.032Z,6.97
2022-11-18T13:50:52.640Z,5.60
2022-11-18T13:53:29.207Z,6.47
2022-11-18T13:55:58.991Z,6.38
2022-11-18T13:58:33.979Z,7.43
2022-11-18T14:01:20.603Z,7.47
2022-11-18T14:04:01.456Z,7.07
2022-11-18T14:06:32.331Z,5.57
2022-11-18T14:09:07.995Z,7.18
2022-11-18T14:11:41.124Z,7.05
2022-11-18T14:14:14.229Z,7.40
2022-11-18T14:16:42.697Z,7.47
2022-11-18T14:19:45.649Z,6.57
2022-11-18T14:22:17.401Z,7.40
2022-11-18T14:24:53.142Z,7.80
2022-11-18T14:27:34.280Z,7.97
2022-11-18T14:30:01.116Z,7.93
2022-11-18T14:32:27.933Z,7.97
2022-11-18T14:35:00.918Z,7.68
2022-11-18T14:37:28.166Z,7.63
2022-11-18T14:39:56.735Z,7.63
2022-11-18T14:42:24.645Z,7.88
2022-11-18T14:44:51.657Z,7.17
2022-11-18T14:47:27.171Z,7.95
2022-11-18T14:49:53.964Z,7.43
2022-11-18T14:52:20.776Z,6.20
2022-11-18T14:54:47.638Z,7.43
2022-11-18T14:57:16.952Z,7.60
2022-11-18T14:59:44.034Z,7.40
2022-11-18T15:02:16.968Z,7.80
2022-11-18T15:04:44.149Z,7.70
2022-11-18T15:07:21.524Z,7.55
2022-11-18T15:09:50.661Z,7.73
2022-11-18T15:12:17.698Z,7.80
2022-11-18T15:14:44.498Z,8.02
2022-11-18T15:17:12.537Z,7.93
2022-11-18T15:19:40.686Z,8.25
2022-11-18T15:22:07.933Z,7.90
2022-11-18T15:24:34.630Z,8.20
2022-11-18T15:27:05.305Z,8.10
2022-11-18T15:29:32.468Z,7.95
2022-11-18T15:32:00.080Z,7.60
2022-11-18T15:34:26.916Z,7.70
2022-11-18T15:36:53.804Z,7.78
2022-11-18T15:39:20.678Z,7.63
2022-11-18T15:41:47.521Z,7.70
2022-11-18T15:44:14.420Z,7.50
2022-11-18T15:46:41.503Z,7.87
2022-11-18T15:49:13.093Z,7.85
2022-11-18T15:51:40.267Z,8.15
2022-11-18T15:54:07.053Z,8.07
2022-11-18T15:56:34.231Z,7.70
2022-11-18T15:59:02.213Z,8.50
2022-11-18T16:01:32.719Z,8.60
2022-11-18T16:04:00.047Z,8.95
2022-11-18T16:06:27.467Z,8.70
2022-11-18T16:08:59.478Z,8.77
2022-11-18T16:11:49.150Z,8.87
2022-11-18T16:14:18.772Z,8.98
2022-11-18T16:16:47.882Z,9.10
2022-11-18T16:19:18.059Z,9.75
2022-11-18T16:21:48.005Z,9.40
2022-11-18T16:24:23.204Z,10.00
2022-11-18T16:26:50.394Z,9.93
2022-11-18T16:29:18.830Z,9.88
2022-11-18T16:31:50.943Z,9.88
2022-11-18T16:34:23.591Z,10.05
2022-11-18T16:36:52.866Z,9.37
2022-11-18T16:39:25.786Z,9.20
2022-11-18T16:42:08.063Z,9.02
2022-11-18T16:44:36.644Z,9.50
2022-11-18T16:47:08.936Z,10.45
2022-11-18T16:49:39.576Z,9.33
2022-11-18T16:52:07.552Z,9.40
2022-11-18T16:54:35.582Z,9.82
2022-11-18T16:57:04.098Z,10.57
2022-11-18T16:59:31.543Z,9.75
2022-11-18T17:01:59.854Z,9.83
2022-11-18T17:04:28.474Z,9.48
2022-11-18T17:06:55.486Z,10.48
2022-11-18T17:09:24.455Z,10.27
2022-11-18T17:11:53.205Z,11.52
2022-11-18T17:14:20.118Z,11.43
2022-11-18T17:16:47.052Z,11.93
2022-11-18T17:19:16.806Z,14.23
2022-11-18T17:21:44.490Z,16.83
2022-11-18T17:24:18.071Z,17.63
2022-11-18T17:26:45.507Z,13.87
2022-11-18T17:29:13.331Z,12.63
2022-11-18T17:31:41.334Z,13.80
2022-11-18T17:34:12.079Z,12.48
2022-11-18T17:36:39.211Z,11.10
2022-11-18T17:39:06.273Z,10.57
2022-11-18T17:41:51.654Z,9.70
2022-11-18T17:44:19.114Z,9.02
2022-11-18T17:46:47.307Z,8.32
2022-11-18T17:49:18.087Z,7.97
2022-11-18T17:51:46.087Z,7.63
2022-11-18T17:54:14.282Z,7.28
2022-11-18T17:56:41.363Z,6.65
2022-11-18T17:59:08.227Z,6.55
2022-11-18T18:01:35.758Z,7.00
2022-11-18T18:04:03.092Z,6.53
2022-11-18T18:06:30.037Z,6.90
2022-11-18T18:08:58.063Z,7.00
2022-11-18T18:11:25.737Z,8.63
2022-11-18T18:14:11.205Z,9.93
2022-11-18T18:16:42.543Z,8.97
2022-11-18T18:19:10.879Z,8.18
2022-11-18T18:21:38.233Z,8.35
2022-11-18T18:24:05.937Z,9.38
2022-11-18T18:26:33.190Z,8.63
2022-11-18T18:29:01.008Z,8.13
2022-11-18T18:31:28.549Z,7.78
2022-11-18T18:33:55.512Z,8.73
2022-11-18T18:36:24.899Z,8.18
2022-11-18T18:38:52.460Z,8.23
2022-11-18T18:41:22.281Z,8.73
2022-11-18T18:43:50.109Z,8.77
2022-11-18T18:46:28.911Z,9.20
2022-11-18T18:48:59.971Z,9.02
2022-11-18T18:51:28.649Z,10.02
2022-11-18T18:53:56.521Z,9.80
2022-11-18T18:56:23.491Z,11.07
2022-11-18T18:58:50.276Z,11.15
2022-11-18T19:01:17.897Z,10.80
2022-11-18T19:03:45.499Z,11.48
2022-11-18T19:06:47.897Z,11.67
2022-11-18T19:09:11.754Z,11.20
2022-11-18T19:11:58.091Z,10.50
2022-11-18T19:14:25.620Z,9.40
2022-11-18T19:16:52.536Z,9.88
2022-11-18T19:19:41.846Z,9.50
2022-11-18T19:22:10.136Z,9.43
2022-11-18T19:24:49.180Z,9.25
2022-11-18T19:27:17.779Z,9.38
2022-11-18T19:29:44.939Z,9.30
2022-11-18T19:32:11.757Z,10.00
2022-11-18T19:34:38.619Z,10.13
2022-11-18T19:37:05.447Z,10.68
2022-11-18T19:39:32.368Z,11.95
2022-11-18T19:41:59.158Z,13.05
2022-11-18T19:44:25.947Z,14.40
2022-11-18T19:46:52.790Z,14.25
2022-11-18T19:49:19.761Z,13.38
2022-11-18T19:51:46.818Z,13.30
2022-11-18T19:54:13.700Z,13.48
2022-11-18T19:56:40.522Z,13.80
2022-11-18T19:59:07.415Z,13.57
2022-11-18T20:01:34.347Z,13.63
2022-11-18T20:04:03.161Z,14.48
2022-11-18T20:06:30.083Z,13.57
2022-11-18T20:08:57.692Z,13.30
2022-11-18T20:11:25.106Z,13.23
2022-11-18T20:13:52.004Z,12.75
2022-11-18T20:16:22.530Z,12.98
2022-11-18T20:18:54.423Z,12.93
2022-11-18T20:21:22.242Z,11.70
2022-11-18T20:23:56.810Z,10.95
2022-11-18T20:26:25.913Z,10.85
2022-11-18T20:28:57.152Z,11.13
2022-11-18T20:31:25.608Z,11.27
2022-11-18T20:33:54.347Z,11.07
2022-11-18T20:36:23.841Z,11.07
2022-11-18T20:38:52.763Z,11.02
2022-11-18T20:41:20.437Z,11.50
2022-11-18T20:43:48.173Z,11.48
2022-11-18T20:46:20.385Z,11.80
2022-11-18T20:48:48.964Z,11.95
2022-11-18T20:51:20.652Z,12.57
2022-11-18T20:53:47.429Z,12.18
2022-11-18T20:56:23.088Z,12.25
2022-11-18T20:58:50.353Z,11.87
2022-11-18T21:01:23.846Z,11.95
2022-11-18T21:03:59.036Z,12.15
2022-11-18T21:06:28.182Z,11.85
2022-11-18T21:09:00.527Z,12.15
2022-11-18T21:11:28.062Z,12.53
2022-11-18T21:14:16.032Z,12.40
2022-11-18T21:16:46.248Z,13.35
2022-11-18T21:19:13.747Z,13.25
2022-11-18T21:21:51.933Z,13.52
2022-11-18T21:24:24.550Z,12.77
2022-11-18T21:26:54.771Z,12.80
2022-11-18T21:29:23.266Z,13.60
2022-11-18T21:31:50.316Z,12.32
2022-11-18T21:34:17.859Z,13.13
2022-11-18T21:36:48.074Z,12.13
2022-11-18T21:39:19.094Z,12.68
2022-11-18T21:41:49.372Z,13.38
2022-11-18T21:44:19.127Z,12.18
2022-11-18T21:46:45.930Z,13.18
2022-11-18T21:49:12.765Z,12.57
2022-11-18T21:51:39.538Z,12.23
2022-11-18T21:54:06.427Z,12.25
2022-11-18T21:56:33.276Z,13.32
2022-11-18T21:59:01.876Z,11.68
2022-11-18T22:01:31.083Z,12.30
2022-11-18T22:04:03.422Z,13.13
2022-11-18T22:06:33.372Z,11.95
2022-11-18T22:09:00.784Z,12.23
2022-11-18T22:11:28.257Z,11.68
2022-11-18T22:13:55.614Z,11.20
2022-11-18T22:16:24.145Z,10.93
2022-11-18T22:18:58.158Z,11.43
2022-11-18T22:21:28.290Z,10.43
2022-11-18T22:24:00.120Z,11.00
2022-11-18T22:26:27.999Z,11.07
2022-11-18T22:28:57.073Z,11.13
2022-11-18T22:31:26.262Z,10.52
2022-11-18T22:33:54.015Z,10.93
2022-11-18T22:36:23.041Z,11.00
2022-11-18T22:38:50.157Z,10.57
2022-11-18T22:41:46.379Z,11.20
2022-11-18T22:44:15.032Z,10.07
2022-11-18T22:46:43.682Z,10.10
2022-11-18T22:49:11.848Z,10.13
2022-11-18T22:51:39.301Z,10.03
2022-11-18T22:56:54.172Z,11.10
2022-11-18T22:59:21.530Z,10.85
2022-11-18T23:01:50.525Z,9.98
2022-11-18T23:04:17.511Z,11.23
2022-11-18T23:06:44.917Z,11.07
2022-11-18T23:09:11.837Z,10.50
2022-11-18T23:11:57.162Z,9.77
2022-11-18T23:14:23.967Z,9.98
2022-11-18T23:16:50.838Z,9.80
2022-11-18T23:19:18.206Z,11.00
2022-11-18T23:21:45.288Z,10.85
2022-11-18T23:24:13.835Z,10.35
2022-11-18T23:26:41.485Z,10.57
2022-11-18T23:29:10.254Z,10.60
2022-11-18T23:31:39.872Z,10.40
2022-11-18T23:34:06.735Z,10.82
2022-11-18T23:36:33.481Z,10.30
2022-11-18T23:39:00.285Z,10.77
2022-11-18T23:41:27.029Z,11.30
2022-11-18T23:43:54.190Z,11.13
2022-11-18T23:46:21.049Z,10.80
2022-11-18T23:48:48.165Z,11.45
2022-11-18T23:51:20.467Z,10.60
2022-11-18T23:53:51.040Z,11.17
2022-11-18T23:56:19.225Z,11.35
2022-11-18T23:58:51.257Z,11.23
